EWN weather

Coastal Carolina Regional Airport
New Bern, North Carolina, United States

Public forecast

Using degrees Fahrenheit for public forecast. Weather courtesy of forecast.io.

Current aviation weather report (METAR) for Coastal Carolina Regional Airport

Retrieved 2019/11/13 15:54 UTC (34 minutes ago):

KEWN 131554Z 02012G18KT 10SM CLR 04/M05 A3042 RMK AO2 SLP301 T00391050

Aviation forecast (TAF) for Coastal Carolina Regional Airport

Retrieved 2019/11/13 12:27 UTC (4 hours ago):

TAF KEWN 131124Z 1312/1412 36012G21KT P6SM SKC FM131900 02010KT P6SM SKC FM140100 VRB03KT P6SM FEW250